sensor_id;sensor_type;location;lat;lon;timestamp;P1;durP1;ratioP1;P2;durP2;ratioP2
51718;SDS011;37795;53.236;5.704;2024-03-08T00:01:09;4.60;;;3.23;;
51718;SDS011;37795;53.236;5.704;2024-03-08T00:03:35;4.80;;;3.83;;
51718;SDS011;37795;53.236;5.704;2024-03-08T00:06:01;4.63;;;3.90;;
51718;SDS011;37795;53.236;5.704;2024-03-08T00:08:27;6.32;;;3.42;;
51718;SDS011;37795;53.236;5.704;2024-03-08T00:10:53;3.97;;;3.30;;
51718;SDS011;37795;53.236;5.704;2024-03-08T00:13:19;4.77;;;3.50;;
51718;SDS011;37795;53.236;5.704;2024-03-08T00:15:44;4.77;;;3.53;;
51718;SDS011;37795;53.236;5.704;2024-03-08T00:18:10;4.10;;;3.55;;
51718;SDS011;37795;53.236;5.704;2024-03-08T00:20:36;4.00;;;3.60;;
51718;SDS011;37795;53.236;5.704;2024-03-08T00:23:02;4.40;;;4.00;;
51718;SDS011;37795;53.236;5.704;2024-03-08T00:25:28;3.80;;;3.17;;
51718;SDS011;37795;53.236;5.704;2024-03-08T00:27:54;3.85;;;3.20;;
51718;SDS011;37795;53.236;5.704;2024-03-08T00:30:21;4.53;;;3.65;;
51718;SDS011;37795;53.236;5.704;2024-03-08T00:32:48;4.63;;;3.33;;
51718;SDS011;37795;53.236;5.704;2024-03-08T00:35:14;3.90;;;3.50;;
51718;SDS011;37795;53.236;5.704;2024-03-08T00:37:40;4.40;;;3.45;;
51718;SDS011;37795;53.236;5.704;2024-03-08T00:40:12;3.90;;;3.50;;
51718;SDS011;37795;53.236;5.704;2024-03-08T00:42:38;4.65;;;3.58;;
51718;SDS011;37795;53.236;5.704;2024-03-08T00:45:05;4.50;;;3.53;;
51718;SDS011;37795;53.236;5.704;2024-03-08T00:47:31;3.85;;;3.45;;
51718;SDS011;37795;53.236;5.704;2024-03-08T00:49:57;4.30;;;3.50;;
51718;SDS011;37795;53.236;5.704;2024-03-08T00:52:23;4.33;;;3.70;;
51718;SDS011;37795;53.236;5.704;2024-03-08T00:54:50;5.00;;;3.43;;
51718;SDS011;37795;53.236;5.704;2024-03-08T00:57:15;4.63;;;3.70;;
51718;SDS011;37795;53.236;5.704;2024-03-08T00:59:41;4.27;;;3.53;;
51718;SDS011;37795;53.236;5.704;2024-03-08T01:02:07;3.90;;;3.30;;
51718;SDS011;37795;53.236;5.704;2024-03-08T01:04:35;4.97;;;3.65;;
51718;SDS011;37795;53.236;5.704;2024-03-08T01:07:01;4.37;;;3.83;;
51718;SDS011;37795;53.236;5.704;2024-03-08T01:09:27;3.90;;;3.50;;
51718;SDS011;37795;53.236;5.704;2024-03-08T01:11:53;3.73;;;3.20;;
51718;SDS011;37795;53.236;5.704;2024-03-08T01:14:20;4.88;;;3.85;;
51718;SDS011;37795;53.236;5.704;2024-03-08T01:16:49;4.03;;;3.30;;
51718;SDS011;37795;53.236;5.704;2024-03-08T01:19:15;4.70;;;3.70;;
51718;SDS011;37795;53.236;5.704;2024-03-08T01:21:41;4.13;;;3.58;;
51718;SDS011;37795;53.236;5.704;2024-03-08T01:24:07;4.28;;;3.85;;
51718;SDS011;37795;53.236;5.704;2024-03-08T01:26:33;4.10;;;3.70;;
51718;SDS011;37795;53.236;5.704;2024-03-08T01:29:02;4.40;;;3.70;;
51718;SDS011;37795;53.236;5.704;2024-03-08T01:31:31;4.93;;;3.80;;
51718;SDS011;37795;53.236;5.704;2024-03-08T01:33:57;4.43;;;3.77;;
51718;SDS011;37795;53.236;5.704;2024-03-08T01:36:24;5.68;;;3.83;;
51718;SDS011;37795;53.236;5.704;2024-03-08T01:38:50;5.63;;;3.97;;
51718;SDS011;37795;53.236;5.704;2024-03-08T01:41:16;4.20;;;3.65;;
51718;SDS011;37795;53.236;5.704;2024-03-08T01:43:43;4.25;;;3.60;;
51718;SDS011;37795;53.236;5.704;2024-03-08T01:46:09;4.13;;;3.58;;
51718;SDS011;37795;53.236;5.704;2024-03-08T01:48:38;4.47;;;3.47;;
51718;SDS011;37795;53.236;5.704;2024-03-08T01:51:06;4.27;;;3.47;;
51718;SDS011;37795;53.236;5.704;2024-03-08T01:53:32;4.10;;;3.70;;
51718;SDS011;37795;53.236;5.704;2024-03-08T01:55:58;4.20;;;3.43;;
51718;SDS011;37795;53.236;5.704;2024-03-08T01:58:25;4.50;;;3.45;;
51718;SDS011;37795;53.236;5.704;2024-03-08T02:00:53;5.10;;;4.03;;
51718;SDS011;37795;53.236;5.704;2024-03-08T02:03:21;4.38;;;3.65;;
51718;SDS011;37795;53.236;5.704;2024-03-08T02:05:47;3.90;;;3.43;;
51718;SDS011;37795;53.236;5.704;2024-03-08T02:08:14;4.70;;;4.20;;
51718;SDS011;37795;53.236;5.704;2024-03-08T02:10:41;4.00;;;3.60;;
51718;SDS011;37795;53.236;5.704;2024-03-08T02:13:08;4.25;;;3.70;;
51718;SDS011;37795;53.236;5.704;2024-03-08T02:18:20;4.28;;;3.70;;
51718;SDS011;37795;53.236;5.704;2024-03-08T02:20:47;3.78;;;3.35;;
51718;SDS011;37795;53.236;5.704;2024-03-08T02:23:18;4.88;;;3.75;;
51718;SDS011;37795;53.236;5.704;2024-03-08T02:25:44;3.88;;;3.47;;
51718;SDS011;37795;53.236;5.704;2024-03-08T02:28:11;4.00;;;3.60;;
51718;SDS011;37795;53.236;5.704;2024-03-08T02:30:37;4.55;;;3.78;;
51718;SDS011;37795;53.236;5.704;2024-03-08T02:33:04;4.18;;;3.47;;
51718;SDS011;37795;53.236;5.704;2024-03-08T02:35:30;4.57;;;3.72;;
51718;SDS011;37795;53.236;5.704;2024-03-08T02:37:56;4.40;;;3.90;;
51718;SDS011;37795;53.236;5.704;2024-03-08T02:40:22;4.53;;;3.85;;
51718;SDS011;37795;53.236;5.704;2024-03-08T02:42:48;4.00;;;3.40;;
51718;SDS011;37795;53.236;5.704;2024-03-08T02:45:13;4.33;;;3.80;;
51718;SDS011;37795;53.236;5.704;2024-03-08T02:47:39;4.63;;;3.90;;
51718;SDS011;37795;53.236;5.704;2024-03-08T02:50:05;4.35;;;3.72;;
51718;SDS011;37795;53.236;5.704;2024-03-08T02:52:36;4.00;;;3.50;;
51718;SDS011;37795;53.236;5.704;2024-03-08T02:55:02;4.40;;;3.50;;
51718;SDS011;37795;53.236;5.704;2024-03-08T02:57:27;4.53;;;3.60;;
51718;SDS011;37795;53.236;5.704;2024-03-08T02:59:53;4.28;;;3.80;;
51718;SDS011;37795;53.236;5.704;2024-03-08T03:02:19;3.97;;;3.55;;
51718;SDS011;37795;53.236;5.704;2024-03-08T03:04:46;4.82;;;3.80;;
51718;SDS011;37795;53.236;5.704;2024-03-08T03:07:12;3.78;;;3.30;;
51718;SDS011;37795;53.236;5.704;2024-03-08T03:09:38;5.63;;;4.10;;
51718;SDS011;37795;53.236;5.704;2024-03-08T03:12:03;4.50;;;3.83;;
51718;SDS011;37795;53.236;5.704;2024-03-08T03:14:29;4.63;;;3.93;;
51718;SDS011;37795;53.236;5.704;2024-03-08T03:16:55;4.20;;;3.50;;
51718;SDS011;37795;53.236;5.704;2024-03-08T03:19:20;5.28;;;3.97;;
51718;SDS011;37795;53.236;5.704;2024-03-08T03:21:46;5.03;;;3.90;;
51718;SDS011;37795;53.236;5.704;2024-03-08T03:24:12;4.50;;;3.83;;
51718;SDS011;37795;53.236;5.704;2024-03-08T03:26:41;4.30;;;3.60;;
51718;SDS011;37795;53.236;5.704;2024-03-08T03:29:08;4.50;;;3.65;;
51718;SDS011;37795;53.236;5.704;2024-03-08T03:31:36;4.07;;;3.50;;
51718;SDS011;37795;53.236;5.704;2024-03-08T03:34:02;4.30;;;3.72;;
51718;SDS011;37795;53.236;5.704;2024-03-08T03:36:29;4.28;;;3.75;;
51718;SDS011;37795;53.236;5.704;2024-03-08T03:38:55;4.50;;;3.70;;
51718;SDS011;37795;53.236;5.704;2024-03-08T03:41:36;5.15;;;4.00;;
51718;SDS011;37795;53.236;5.704;2024-03-08T03:44:02;4.38;;;3.55;;
51718;SDS011;37795;53.236;5.704;2024-03-08T03:46:28;4.88;;;3.97;;
51718;SDS011;37795;53.236;5.704;2024-03-08T03:48:54;4.37;;;3.67;;
51718;SDS011;37795;53.236;5.704;2024-03-08T03:51:20;4.32;;;3.70;;
51718;SDS011;37795;53.236;5.704;2024-03-08T03:53:46;4.80;;;4.03;;
51718;SDS011;37795;53.236;5.704;2024-03-08T03:56:12;4.60;;;4.03;;
51718;SDS011;37795;53.236;5.704;2024-03-08T03:58:38;4.77;;;3.87;;
51718;SDS011;37795;53.236;5.704;2024-03-08T04:01:05;4.10;;;3.63;;
51718;SDS011;37795;53.236;5.704;2024-03-08T04:03:30;4.47;;;3.70;;
51718;SDS011;37795;53.236;5.704;2024-03-08T04:05:56;4.68;;;3.88;;
51718;SDS011;37795;53.236;5.704;2024-03-08T04:08:22;4.82;;;3.92;;
51718;SDS011;37795;53.236;5.704;2024-03-08T04:10:51;4.30;;;3.72;;
51718;SDS011;37795;53.236;5.704;2024-03-08T04:13:17;4.57;;;3.80;;
51718;SDS011;37795;53.236;5.704;2024-03-08T04:15:42;4.90;;;4.07;;
51718;SDS011;37795;53.236;5.704;2024-03-08T04:18:13;4.60;;;4.10;;
51718;SDS011;37795;53.236;5.704;2024-03-08T04:20:39;4.68;;;3.80;;
51718;SDS011;37795;53.236;5.704;2024-03-08T04:23:05;4.22;;;3.80;;
51718;SDS011;37795;53.236;5.704;2024-03-08T04:25:31;4.25;;;3.75;;
51718;SDS011;37795;53.236;5.704;2024-03-08T04:27:57;5.40;;;4.53;;
51718;SDS011;37795;53.236;5.704;2024-03-08T04:30:23;5.93;;;4.53;;
51718;SDS011;37795;53.236;5.704;2024-03-08T04:32:49;5.20;;;4.30;;
51718;SDS011;37795;53.236;5.704;2024-03-08T04:35:15;5.30;;;4.72;;
51718;SDS011;37795;53.236;5.704;2024-03-08T04:37:41;4.82;;;4.18;;
51718;SDS011;37795;53.236;5.704;2024-03-08T04:40:07;5.00;;;4.05;;
51718;SDS011;37795;53.236;5.704;2024-03-08T04:42:33;4.78;;;4.20;;
51718;SDS011;37795;53.236;5.704;2024-03-08T04:44:59;4.37;;;3.70;;
51718;SDS011;37795;53.236;5.704;2024-03-08T04:47:25;4.33;;;3.90;;
51718;SDS011;37795;53.236;5.704;2024-03-08T04:49:51;5.00;;;3.83;;
51718;SDS011;37795;53.236;5.704;2024-03-08T04:52:17;4.72;;;3.85;;
51718;SDS011;37795;53.236;5.704;2024-03-08T04:54:43;4.50;;;3.70;;
51718;SDS011;37795;53.236;5.704;2024-03-08T04:57:10;4.07;;;3.53;;
51718;SDS011;37795;53.236;5.704;2024-03-08T04:59:36;4.15;;;3.45;;
51718;SDS011;37795;53.236;5.704;2024-03-08T05:02:02;4.43;;;3.60;;
51718;SDS011;37795;53.236;5.704;2024-03-08T05:04:28;4.43;;;3.20;;
51718;SDS011;37795;53.236;5.704;2024-03-08T05:06:54;3.72;;;3.30;;
51718;SDS011;37795;53.236;5.704;2024-03-08T05:09:20;3.50;;;3.05;;
51718;SDS011;37795;53.236;5.704;2024-03-08T05:11:46;4.88;;;3.60;;
51718;SDS011;37795;53.236;5.704;2024-03-08T05:14:13;3.97;;;3.58;;
51718;SDS011;37795;53.236;5.704;2024-03-08T05:16:45;3.47;;;3.17;;
51718;SDS011;37795;53.236;5.704;2024-03-08T05:19:15;4.50;;;3.43;;
51718;SDS011;37795;53.236;5.704;2024-03-08T05:21:45;3.65;;;3.08;;
51718;SDS011;37795;53.236;5.704;2024-03-08T05:24:11;3.90;;;3.25;;
51718;SDS011;37795;53.236;5.704;2024-03-08T05:26:38;4.57;;;3.80;;
51718;SDS011;37795;53.236;5.704;2024-03-08T05:29:04;4.07;;;3.30;;
51718;SDS011;37795;53.236;5.704;2024-03-08T05:31:30;3.65;;;2.90;;
51718;SDS011;37795;53.236;5.704;2024-03-08T05:34:16;3.67;;;3.15;;
51718;SDS011;37795;53.236;5.704;2024-03-08T05:36:42;3.90;;;2.97;;
51718;SDS011;37795;53.236;5.704;2024-03-08T05:39:10;4.13;;;2.97;;
51718;SDS011;37795;53.236;5.704;2024-03-08T05:41:37;3.92;;;3.47;;
51718;SDS011;37795;53.236;5.704;2024-03-08T05:44:04;3.45;;;3.03;;
51718;SDS011;37795;53.236;5.704;2024-03-08T05:46:30;3.88;;;3.20;;
51718;SDS011;37795;53.236;5.704;2024-03-08T05:48:55;3.90;;;3.17;;
51718;SDS011;37795;53.236;5.704;2024-03-08T05:51:23;3.90;;;3.50;;
51718;SDS011;37795;53.236;5.704;2024-03-08T05:53:49;3.53;;;3.22;;
51718;SDS011;37795;53.236;5.704;2024-03-08T05:56:15;4.47;;;3.10;;
51718;SDS011;37795;53.236;5.704;2024-03-08T05:58:40;3.58;;;2.80;;
51718;SDS011;37795;53.236;5.704;2024-03-08T06:01:06;4.03;;;3.35;;
51718;SDS011;37795;53.236;5.704;2024-03-08T06:03:33;3.83;;;3.38;;
51718;SDS011;37795;53.236;5.704;2024-03-08T06:05:59;3.95;;;3.50;;
51718;SDS011;37795;53.236;5.704;2024-03-08T06:08:25;4.13;;;3.42;;
51718;SDS011;37795;53.236;5.704;2024-03-08T06:10:55;3.53;;;3.15;;
51718;SDS011;37795;53.236;5.704;2024-03-08T06:13:21;3.90;;;3.33;;
51718;SDS011;37795;53.236;5.704;2024-03-08T06:15:47;4.57;;;3.60;;
51718;SDS011;37795;53.236;5.704;2024-03-08T06:18:12;3.77;;;3.37;;
51718;SDS011;37795;53.236;5.704;2024-03-08T06:20:40;4.20;;;3.65;;
51718;SDS011;37795;53.236;5.704;2024-03-08T06:23:08;3.93;;;3.30;;
51718;SDS011;37795;53.236;5.704;2024-03-08T06:25:34;3.95;;;3.50;;
51718;SDS011;37795;53.236;5.704;2024-03-08T06:28:00;4.17;;;3.40;;
51718;SDS011;37795;53.236;5.704;2024-03-08T06:30:26;4.00;;;3.53;;
51718;SDS011;37795;53.236;5.704;2024-03-08T06:32:51;4.35;;;3.72;;
51718;SDS011;37795;53.236;5.704;2024-03-08T06:35:17;4.00;;;3.40;;
51718;SDS011;37795;53.236;5.704;2024-03-08T06:37:45;3.90;;;3.35;;
51718;SDS011;37795;53.236;5.704;2024-03-08T06:40:11;3.40;;;3.10;;
51718;SDS011;37795;53.236;5.704;2024-03-08T06:42:39;3.85;;;3.13;;
51718;SDS011;37795;53.236;5.704;2024-03-08T06:51:11;3.92;;;3.42;;
51718;SDS011;37795;53.236;5.704;2024-03-08T06:53:37;3.83;;;3.42;;
51718;SDS011;37795;53.236;5.704;2024-03-08T06:56:03;4.60;;;3.45;;
51718;SDS011;37795;53.236;5.704;2024-03-08T06:58:29;4.07;;;3.50;;
51718;SDS011;37795;53.236;5.704;2024-03-08T07:00:55;3.65;;;3.13;;
51718;SDS011;37795;53.236;5.704;2024-03-08T07:03:23;4.10;;;3.17;;
51718;SDS011;37795;53.236;5.704;2024-03-08T07:05:49;4.05;;;3.50;;
51718;SDS011;37795;53.236;5.704;2024-03-08T07:08:15;3.93;;;3.53;;
51718;SDS011;37795;53.236;5.704;2024-03-08T07:10:41;3.70;;;3.30;;
51718;SDS011;37795;53.236;5.704;2024-03-08T07:13:07;3.30;;;3.00;;
51718;SDS011;37795;53.236;5.704;2024-03-08T07:15:33;3.67;;;3.20;;
51718;SDS011;37795;53.236;5.704;2024-03-08T07:18:00;3.95;;;3.50;;
51718;SDS011;37795;53.236;5.704;2024-03-08T07:20:26;3.83;;;3.03;;
51718;SDS011;37795;53.236;5.704;2024-03-08T07:22:53;3.63;;;3.05;;
51718;SDS011;37795;53.236;5.704;2024-03-08T07:25:19;3.60;;;2.97;;
51718;SDS011;37795;53.236;5.704;2024-03-08T07:27:52;4.05;;;3.50;;
51718;SDS011;37795;53.236;5.704;2024-03-08T07:30:22;3.70;;;3.27;;
51718;SDS011;37795;53.236;5.704;2024-03-08T07:33:21;3.87;;;3.47;;
51718;SDS011;37795;53.236;5.704;2024-03-08T07:35:47;3.30;;;3.00;;
51718;SDS011;37795;53.236;5.704;2024-03-08T07:38:15;3.70;;;2.97;;
51718;SDS011;37795;53.236;5.704;2024-03-08T07:40:41;3.95;;;3.30;;
51718;SDS011;37795;53.236;5.704;2024-03-08T07:43:10;3.63;;;3.28;;
51718;SDS011;37795;53.236;5.704;2024-03-08T07:45:37;4.40;;;3.60;;
51718;SDS011;37795;53.236;5.704;2024-03-08T07:48:03;3.83;;;3.20;;
51718;SDS011;37795;53.236;5.704;2024-03-08T07:50:35;3.87;;;3.30;;
51718;SDS011;37795;53.236;5.704;2024-03-08T07:53:02;4.03;;;3.35;;
51718;SDS011;37795;53.236;5.704;2024-03-08T07:55:28;4.07;;;3.20;;
51718;SDS011;37795;53.236;5.704;2024-03-08T07:57:56;4.38;;;3.30;;
51718;SDS011;37795;53.236;5.704;2024-03-08T08:00:22;4.55;;;3.05;;
51718;SDS011;37795;53.236;5.704;2024-03-08T08:02:49;3.80;;;3.20;;
51718;SDS011;37795;53.236;5.704;2024-03-08T08:05:15;3.58;;;2.60;;
51718;SDS011;37795;53.236;5.704;2024-03-08T08:07:46;3.63;;;2.80;;
51718;SDS011;37795;53.236;5.704;2024-03-08T08:10:12;3.63;;;2.90;;
51718;SDS011;37795;53.236;5.704;2024-03-08T08:12:58;4.50;;;2.85;;
51718;SDS011;37795;53.236;5.704;2024-03-08T08:15:24;3.42;;;3.05;;
51718;SDS011;37795;53.236;5.704;2024-03-08T08:17:49;3.60;;;2.70;;
51718;SDS011;37795;53.236;5.704;2024-03-08T08:20:17;4.07;;;2.65;;
51718;SDS011;37795;53.236;5.704;2024-03-08T08:22:43;2.92;;;2.28;;
51718;SDS011;37795;53.236;5.704;2024-03-08T08:25:09;5.10;;;2.90;;
51718;SDS011;37795;53.236;5.704;2024-03-08T08:27:38;3.50;;;2.90;;
51718;SDS011;37795;53.236;5.704;2024-03-08T08:30:13;3.55;;;2.78;;
51718;SDS011;37795;53.236;5.704;2024-03-08T08:32:39;3.13;;;2.80;;
51718;SDS011;37795;53.236;5.704;2024-03-08T08:35:05;3.28;;;2.65;;
51718;SDS011;37795;53.236;5.704;2024-03-08T08:37:32;3.40;;;2.60;;
51718;SDS011;37795;53.236;5.704;2024-03-08T08:40:01;3.83;;;2.85;;
51718;SDS011;37795;53.236;5.704;2024-03-08T08:42:30;4.90;;;2.90;;
51718;SDS011;37795;53.236;5.704;2024-03-08T08:44:57;3.40;;;2.80;;
51718;SDS011;37795;53.236;5.704;2024-03-08T08:47:23;3.77;;;3.30;;
51718;SDS011;37795;53.236;5.704;2024-03-08T08:49:49;3.90;;;2.70;;
51718;SDS011;37795;53.236;5.704;2024-03-08T08:52:16;3.63;;;2.80;;
51718;SDS011;37795;53.236;5.704;2024-03-08T08:54:42;3.10;;;2.67;;
51718;SDS011;37795;53.236;5.704;2024-03-08T08:57:09;3.63;;;3.10;;
51718;SDS011;37795;53.236;5.704;2024-03-08T08:59:35;3.07;;;2.73;;
51718;SDS011;37795;53.236;5.704;2024-03-08T09:02:02;4.35;;;2.53;;
51718;SDS011;37795;53.236;5.704;2024-03-08T09:04:30;3.45;;;2.88;;
51718;SDS011;37795;53.236;5.704;2024-03-08T09:06:56;3.53;;;3.00;;
51718;SDS011;37795;53.236;5.704;2024-03-08T09:09:22;4.60;;;2.80;;
51718;SDS011;37795;53.236;5.704;2024-03-08T09:11:48;3.97;;;3.10;;
51718;SDS011;37795;53.236;5.704;2024-03-08T09:14:15;3.65;;;3.08;;
51718;SDS011;37795;53.236;5.704;2024-03-08T09:16:40;3.65;;;2.85;;
51718;SDS011;37795;53.236;5.704;2024-03-08T09:19:06;3.47;;;3.05;;
51718;SDS011;37795;53.236;5.704;2024-03-08T09:21:33;3.95;;;3.58;;
51718;SDS011;37795;53.236;5.704;2024-03-08T09:24:02;4.35;;;3.20;;
51718;SDS011;37795;53.236;5.704;2024-03-08T09:26:27;4.55;;;3.42;;
51718;SDS011;37795;53.236;5.704;2024-03-08T09:28:53;4.33;;;3.60;;
51718;SDS011;37795;53.236;5.704;2024-03-08T09:31:22;5.05;;;3.50;;
51718;SDS011;37795;53.236;5.704;2024-03-08T09:33:47;3.42;;;3.05;;
51718;SDS011;37795;53.236;5.704;2024-03-08T09:36:13;3.70;;;3.08;;
51718;SDS011;37795;53.236;5.704;2024-03-08T09:38:39;4.90;;;3.10;;
51718;SDS011;37795;53.236;5.704;2024-03-08T09:41:05;3.60;;;2.97;;
51718;SDS011;37795;53.236;5.704;2024-03-08T09:43:31;5.00;;;3.17;;
51718;SDS011;37795;53.236;5.704;2024-03-08T09:45:58;4.45;;;3.30;;
51718;SDS011;37795;53.236;5.704;2024-03-08T09:48:24;6.35;;;3.17;;
51718;SDS011;37795;53.236;5.704;2024-03-08T09:50:51;5.35;;;3.53;;
51718;SDS011;37795;53.236;5.704;2024-03-08T09:53:17;4.25;;;3.60;;
51718;SDS011;37795;53.236;5.704;2024-03-08T09:55:43;5.00;;;3.85;;
51718;SDS011;37795;53.236;5.704;2024-03-08T09:58:14;3.53;;;3.00;;
51718;SDS011;37795;53.236;5.704;2024-03-08T10:00:42;4.32;;;3.00;;
51718;SDS011;37795;53.236;5.704;2024-03-08T10:03:08;3.65;;;3.00;;
51718;SDS011;37795;53.236;5.704;2024-03-08T10:05:35;4.18;;;2.90;;
51718;SDS011;37795;53.236;5.704;2024-03-08T10:08:00;3.60;;;2.60;;
51718;SDS011;37795;53.236;5.704;2024-03-08T10:10:26;3.28;;;2.80;;
51718;SDS011;37795;53.236;5.704;2024-03-08T10:12:52;3.03;;;2.50;;
51718;SDS011;37795;53.236;5.704;2024-03-08T10:15:18;6.22;;;2.85;;
51718;SDS011;37795;53.236;5.704;2024-03-08T10:17:45;3.33;;;2.78;;
51718;SDS011;37795;53.236;5.704;2024-03-08T10:20:14;4.55;;;3.20;;
51718;SDS011;37795;53.236;5.704;2024-03-08T10:22:41;4.72;;;2.63;;
51718;SDS011;37795;53.236;5.704;2024-03-08T10:25:10;4.75;;;2.97;;
51718;SDS011;37795;53.236;5.704;2024-03-08T10:27:39;4.60;;;3.00;;
51718;SDS011;37795;53.236;5.704;2024-03-08T10:30:10;4.32;;;2.92;;
51718;SDS011;37795;53.236;5.704;2024-03-08T10:32:39;3.78;;;2.70;;
51718;SDS011;37795;53.236;5.704;2024-03-08T10:35:06;3.47;;;2.92;;
51718;SDS011;37795;53.236;5.704;2024-03-08T10:37:33;4.05;;;2.72;;
51718;SDS011;37795;53.236;5.704;2024-03-08T10:40:09;3.70;;;2.92;;
51718;SDS011;37795;53.236;5.704;2024-03-08T10:43:02;3.63;;;2.78;;
51718;SDS011;37795;53.236;5.704;2024-03-08T10:51:11;6.18;;;4.88;;
51718;SDS011;37795;53.236;5.704;2024-03-08T10:53:37;5.67;;;3.60;;
51718;SDS011;37795;53.236;5.704;2024-03-08T10:56:07;5.55;;;4.03;;
51718;SDS011;37795;53.236;5.704;2024-03-08T10:58:34;8.40;;;6.07;;
51718;SDS011;37795;53.236;5.704;2024-03-08T11:01:01;7.13;;;5.80;;
51718;SDS011;37795;53.236;5.704;2024-03-08T11:06:06;5.53;;;3.30;;
51718;SDS011;37795;53.236;5.704;2024-03-08T11:08:35;4.20;;;3.27;;
51718;SDS011;37795;53.236;5.704;2024-03-08T11:11:01;4.93;;;3.45;;
51718;SDS011;37795;53.236;5.704;2024-03-08T11:13:40;4.88;;;3.20;;
51718;SDS011;37795;53.236;5.704;2024-03-08T11:16:12;4.38;;;3.10;;
51718;SDS011;37795;53.236;5.704;2024-03-08T11:18:59;5.50;;;4.25;;
51718;SDS011;37795;53.236;5.704;2024-03-08T11:21:35;9.10;;;5.47;;
51718;SDS011;37795;53.236;5.704;2024-03-08T17:20:35;11.80;;;3.78;;
51718;SDS011;37795;53.236;5.704;2024-03-08T17:23:02;13.27;;;6.40;;
51718;SDS011;37795;53.236;5.704;2024-03-08T17:25:31;10.15;;;6.20;;
51718;SDS011;37795;53.236;5.704;2024-03-08T17:27:58;12.73;;;6.03;;
51718;SDS011;37795;53.236;5.704;2024-03-08T17:30:26;10.30;;;6.05;;
51718;SDS011;37795;53.236;5.704;2024-03-08T17:33:01;9.90;;;6.00;;
51718;SDS011;37795;53.236;5.704;2024-03-08T17:35:34;10.65;;;5.90;;
51718;SDS011;37795;53.236;5.704;2024-03-08T17:38:03;11.00;;;6.13;;
51718;SDS011;37795;53.236;5.704;2024-03-08T17:40:34;9.27;;;6.22;;
51718;SDS011;37795;53.236;5.704;2024-03-08T17:43:03;12.23;;;5.85;;
51718;SDS011;37795;53.236;5.704;2024-03-08T17:45:33;10.70;;;5.80;;
51718;SDS011;37795;53.236;5.704;2024-03-08T17:48:04;9.48;;;6.13;;
51718;SDS011;37795;53.236;5.704;2024-03-08T17:50:37;9.93;;;5.60;;
51718;SDS011;37795;53.236;5.704;2024-03-08T17:53:04;9.60;;;6.33;;
51718;SDS011;37795;53.236;5.704;2024-03-08T17:55:30;9.47;;;5.97;;
51718;SDS011;37795;53.236;5.704;2024-03-08T17:57:56;7.73;;;5.30;;
51718;SDS011;37795;53.236;5.704;2024-03-08T18:00:23;8.93;;;5.90;;
51718;SDS011;37795;53.236;5.704;2024-03-08T18:02:57;11.90;;;5.97;;
51718;SDS011;37795;53.236;5.704;2024-03-08T18:05:25;8.40;;;5.83;;
51718;SDS011;37795;53.236;5.704;2024-03-08T18:08:00;10.43;;;5.90;;
51718;SDS011;37795;53.236;5.704;2024-03-08T18:10:27;9.40;;;5.40;;
51718;SDS011;37795;53.236;5.704;2024-03-08T18:12:55;11.20;;;6.40;;
51718;SDS011;37795;53.236;5.704;2024-03-08T18:15:27;8.13;;;5.72;;
51718;SDS011;37795;53.236;5.704;2024-03-08T18:17:56;11.13;;;6.37;;
51718;SDS011;37795;53.236;5.704;2024-03-08T18:20:29;10.15;;;6.03;;
51718;SDS011;37795;53.236;5.704;2024-03-08T18:22:57;8.53;;;5.40;;
51718;SDS011;37795;53.236;5.704;2024-03-08T18:25:27;7.67;;;5.30;;
51718;SDS011;37795;53.236;5.704;2024-03-08T18:28:00;10.02;;;5.88;;
51718;SDS011;37795;53.236;5.704;2024-03-08T18:30:30;9.45;;;5.63;;
51718;SDS011;37795;53.236;5.704;2024-03-08T18:33:02;9.20;;;5.72;;
51718;SDS011;37795;53.236;5.704;2024-03-08T18:35:32;9.68;;;5.53;;
51718;SDS011;37795;53.236;5.704;2024-03-08T18:37:59;8.15;;;5.07;;
51718;SDS011;37795;53.236;5.704;2024-03-08T18:40:25;7.53;;;5.67;;
51718;SDS011;37795;53.236;5.704;2024-03-08T18:42:53;8.10;;;5.57;;
51718;SDS011;37795;53.236;5.704;2024-03-08T18:51:11;9.52;;;6.30;;
51718;SDS011;37795;53.236;5.704;2024-03-08T18:53:38;8.53;;;5.80;;
51718;SDS011;37795;53.236;5.704;2024-03-08T18:56:06;8.75;;;6.18;;
51718;SDS011;37795;53.236;5.704;2024-03-08T18:58:34;8.98;;;6.28;;
51718;SDS011;37795;53.236;5.704;2024-03-08T19:01:00;7.85;;;5.65;;
51718;SDS011;37795;53.236;5.704;2024-03-08T19:03:27;8.33;;;5.73;;
51718;SDS011;37795;53.236;5.704;2024-03-08T19:05:53;7.93;;;5.70;;
51718;SDS011;37795;53.236;5.704;2024-03-08T19:08:19;8.95;;;5.72;;
51718;SDS011;37795;53.236;5.704;2024-03-08T19:10:47;7.82;;;5.97;;
51718;SDS011;37795;53.236;5.704;2024-03-08T19:13:13;9.30;;;6.03;;
51718;SDS011;37795;53.236;5.704;2024-03-08T19:15:39;8.35;;;6.00;;
51718;SDS011;37795;53.236;5.704;2024-03-08T19:18:06;8.17;;;6.00;;
51718;SDS011;37795;53.236;5.704;2024-03-08T19:20:36;7.78;;;5.75;;
51718;SDS011;37795;53.236;5.704;2024-03-08T19:23:02;9.68;;;6.03;;
51718;SDS011;37795;53.236;5.704;2024-03-08T19:25:34;7.90;;;6.17;;
51718;SDS011;37795;53.236;5.704;2024-03-08T19:28:04;8.93;;;5.87;;
51718;SDS011;37795;53.236;5.704;2024-03-08T19:30:31;8.50;;;5.88;;
51718;SDS011;37795;53.236;5.704;2024-03-08T19:33:01;8.53;;;5.63;;
51718;SDS011;37795;53.236;5.704;2024-03-08T19:35:28;7.75;;;5.88;;
51718;SDS011;37795;53.236;5.704;2024-03-08T19:37:55;8.13;;;5.57;;
51718;SDS011;37795;53.236;5.704;2024-03-08T19:40:27;8.18;;;5.57;;
51718;SDS011;37795;53.236;5.704;2024-03-08T19:43:02;8.57;;;5.93;;
51718;SDS011;37795;53.236;5.704;2024-03-08T19:45:31;8.40;;;5.60;;
51718;SDS011;37795;53.236;5.704;2024-03-08T19:47:58;7.60;;;5.78;;
51718;SDS011;37795;53.236;5.704;2024-03-08T19:50:32;7.82;;;5.45;;
51718;SDS011;37795;53.236;5.704;2024-03-08T19:52:58;8.27;;;6.20;;
51718;SDS011;37795;53.236;5.704;2024-03-08T19:55:29;8.03;;;5.80;;
51718;SDS011;37795;53.236;5.704;2024-03-08T19:57:57;7.43;;;5.95;;
51718;SDS011;37795;53.236;5.704;2024-03-08T20:00:24;9.77;;;6.10;;
51718;SDS011;37795;53.236;5.704;2024-03-08T20:02:54;9.18;;;6.28;;
51718;SDS011;37795;53.236;5.704;2024-03-08T20:05:24;8.50;;;6.20;;
51718;SDS011;37795;53.236;5.704;2024-03-08T20:07:51;7.05;;;5.32;;
51718;SDS011;37795;53.236;5.704;2024-03-08T20:10:20;8.05;;;6.03;;
51718;SDS011;37795;53.236;5.704;2024-03-08T20:12:49;7.30;;;5.80;;
51718;SDS011;37795;53.236;5.704;2024-03-08T20:15:17;8.38;;;6.03;;
51718;SDS011;37795;53.236;5.704;2024-03-08T20:17:44;8.43;;;5.97;;
51718;SDS011;37795;53.236;5.704;2024-03-08T20:20:11;7.50;;;5.50;;
51718;SDS011;37795;53.236;5.704;2024-03-08T20:22:44;8.55;;;5.68;;
51718;SDS011;37795;53.236;5.704;2024-03-08T20:25:12;7.95;;;5.97;;
51718;SDS011;37795;53.236;5.704;2024-03-08T20:27:47;7.15;;;5.50;;
51718;SDS011;37795;53.236;5.704;2024-03-08T20:30:19;7.78;;;5.70;;
51718;SDS011;37795;53.236;5.704;2024-03-08T20:32:49;8.25;;;5.03;;
51718;SDS011;37795;53.236;5.704;2024-03-08T20:35:21;7.63;;;5.35;;
51718;SDS011;37795;53.236;5.704;2024-03-08T20:37:49;7.35;;;5.60;;
51718;SDS011;37795;53.236;5.704;2024-03-08T20:40:15;8.40;;;5.80;;
51718;SDS011;37795;53.236;5.704;2024-03-08T20:42:48;8.75;;;5.70;;
51718;SDS011;37795;53.236;5.704;2024-03-08T20:45:15;8.15;;;5.85;;
51718;SDS011;37795;53.236;5.704;2024-03-08T20:47:41;8.43;;;5.78;;
51718;SDS011;37795;53.236;5.704;2024-03-08T20:50:08;7.70;;;5.68;;
51718;SDS011;37795;53.236;5.704;2024-03-08T20:52:41;6.67;;;5.30;;
51718;SDS011;37795;53.236;5.704;2024-03-08T20:55:11;7.75;;;5.70;;
51718;SDS011;37795;53.236;5.704;2024-03-08T20:57:42;6.88;;;5.57;;
51718;SDS011;37795;53.236;5.704;2024-03-08T21:00:18;7.20;;;5.47;;
51718;SDS011;37795;53.236;5.704;2024-03-08T21:03:10;6.85;;;5.10;;
51718;SDS011;37795;53.236;5.704;2024-03-08T21:05:38;7.53;;;5.47;;
51718;SDS011;37795;53.236;5.704;2024-03-08T21:08:08;7.57;;;5.35;;
51718;SDS011;37795;53.236;5.704;2024-03-08T21:10:37;7.60;;;5.47;;